sensor_id;sensor_type;location;lat;lon;timestamp;temperature;humidity
18191;DHT22;47004;51.366;12.348;2023-01-23T00:00:15;1.20;99.90
18191;DHT22;47004;51.366;12.348;2023-01-23T00:02:17;1.00;99.90
18191;DHT22;47004;51.366;12.348;2023-01-23T00:04:19;1.00;99.90
18191;DHT22;47004;51.366;12.348;2023-01-23T00:06:22;1.00;99.90
18191;DHT22;47004;51.366;12.348;2023-01-23T00:08:26;1.50;99.90
18191;DHT22;47004;51.366;12.348;2023-01-23T00:10:28;1.00;99.90
18191;DHT22;47004;51.366;12.348;2023-01-23T00:12:33;1.00;99.90
18191;DHT22;47004;51.366;12.348;2023-01-23T00:14:35;1.10;99.90
18191;DHT22;47004;51.366;12.348;2023-01-23T00:16:37;1.00;99.90
18191;DHT22;47004;51.366;12.348;2023-01-23T00:18:39;1.10;99.90
18191;DHT22;47004;51.366;12.348;2023-01-23T00:20:41;1.00;99.90
18191;DHT22;47004;51.366;12.348;2023-01-23T00:22:43;1.10;99.90
18191;DHT22;47004;51.366;12.348;2023-01-23T00:24:47;1.10;99.90
18191;DHT22;47004;51.366;12.348;2023-01-23T00:26:49;1.00;99.90
18191;DHT22;47004;51.366;12.348;2023-01-23T00:28:52;1.10;99.90
18191;DHT22;47004;51.366;12.348;2023-01-23T00:31:01;1.10;99.90
18191;DHT22;47004;51.366;12.348;2023-01-23T00:33:03;1.10;99.90
18191;DHT22;47004;51.366;12.348;2023-01-23T00:35:06;1.00;99.90
18191;DHT22;47004;51.366;12.348;2023-01-23T00:37:08;1.10;99.90
18191;DHT22;47004;51.366;12.348;2023-01-23T00:39:14;1.00;99.90
18191;DHT22;47004;51.366;12.348;2023-01-23T00:41:18;1.10;99.90
18191;DHT22;47004;51.366;12.348;2023-01-23T00:43:20;1.00;99.90
18191;DHT22;47004;51.366;12.348;2023-01-23T00:45:22;1.10;99.90
18191;DHT22;47004;51.366;12.348;2023-01-23T00:47:24;1.10;99.90
18191;DHT22;47004;51.366;12.348;2023-01-23T00:49:27;1.00;99.90
18191;DHT22;47004;51.366;12.348;2023-01-23T00:51:29;1.10;99.90
18191;DHT22;47004;51.366;12.348;2023-01-23T00:53:31;1.00;99.90
18191;DHT22;47004;51.366;12.348;2023-01-23T00:55:33;1.00;99.90
18191;DHT22;47004;51.366;12.348;2023-01-23T00:57:36;1.00;99.90
18191;DHT22;47004;51.366;12.348;2023-01-23T00:59:38;1.00;99.90
18191;DHT22;47004;51.366;12.348;2023-01-23T01:01:40;1.10;99.90
18191;DHT22;47004;51.366;12.348;2023-01-23T01:03:43;1.10;99.90
18191;DHT22;47004;51.366;12.348;2023-01-23T01:05:46;1.10;99.90
18191;DHT22;47004;51.366;12.348;2023-01-23T01:07:48;1.10;99.90
18191;DHT22;47004;51.366;12.348;2023-01-23T01:09:50;1.30;99.90
18191;DHT22;47004;51.366;12.348;2023-01-23T01:11:52;1.10;99.90
18191;DHT22;47004;51.366;12.348;2023-01-23T01:13:55;1.10;99.90
18191;DHT22;47004;51.366;12.348;2023-01-23T01:15:57;1.10;99.90
18191;DHT22;47004;51.366;12.348;2023-01-23T01:18:01;1.10;99.90
18191;DHT22;47004;51.366;12.348;2023-01-23T01:20:05;1.10;99.90
18191;DHT22;47004;51.366;12.348;2023-01-23T01:22:07;1.10;99.90
18191;DHT22;47004;51.366;12.348;2023-01-23T01:24:09;1.50;99.90
18191;DHT22;47004;51.366;12.348;2023-01-23T01:26:11;1.10;99.90
18191;DHT22;47004;51.366;12.348;2023-01-23T01:28:13;1.10;99.90
18191;DHT22;47004;51.366;12.348;2023-01-23T01:30:17;1.10;99.90
18191;DHT22;47004;51.366;12.348;2023-01-23T01:32:19;1.10;99.90
18191;DHT22;47004;51.366;12.348;2023-01-23T01:34:21;1.20;99.90
18191;DHT22;47004;51.366;12.348;2023-01-23T01:36:24;1.10;99.90
18191;DHT22;47004;51.366;12.348;2023-01-23T01:38:27;1.10;99.90
18191;DHT22;47004;51.366;12.348;2023-01-23T01:40:32;0.90;99.90
18191;DHT22;47004;51.366;12.348;2023-01-23T01:42:38;1.20;99.90
18191;DHT22;47004;51.366;12.348;2023-01-23T01:44:52;1.10;99.90
18191;DHT22;47004;51.366;12.348;2023-01-23T01:46:56;1.10;99.90
18191;DHT22;47004;51.366;12.348;2023-01-23T01:49:03;1.10;99.90
18191;DHT22;47004;51.366;12.348;2023-01-23T01:51:09;1.20;99.90
18191;DHT22;47004;51.366;12.348;2023-01-23T01:53:12;1.10;99.90
18191;DHT22;47004;51.366;12.348;2023-01-23T01:55:15;1.10;99.90
18191;DHT22;47004;51.366;12.348;2023-01-23T01:57:19;1.20;99.90
18191;DHT22;47004;51.366;12.348;2023-01-23T01:59:23;1.10;99.90
18191;DHT22;47004;51.366;12.348;2023-01-23T02:01:27;1.10;99.90
18191;DHT22;47004;51.366;12.348;2023-01-23T02:03:30;1.10;99.90
18191;DHT22;47004;51.366;12.348;2023-01-23T02:05:34;1.10;99.90
18191;DHT22;47004;51.366;12.348;2023-01-23T02:07:39;1.10;99.90
18191;DHT22;47004;51.366;12.348;2023-01-23T02:09:42;1.20;99.90
18191;DHT22;47004;51.366;12.348;2023-01-23T02:11:44;1.10;99.90
18191;DHT22;47004;51.366;12.348;2023-01-23T02:13:46;1.20;99.90
18191;DHT22;47004;51.366;12.348;2023-01-23T02:15:49;1.10;99.90
18191;DHT22;47004;51.366;12.348;2023-01-23T02:17:52;1.20;99.90
18191;DHT22;47004;51.366;12.348;2023-01-23T02:20:02;1.20;99.90
18191;DHT22;47004;51.366;12.348;2023-01-23T02:22:18;1.20;99.90
18191;DHT22;47004;51.366;12.348;2023-01-23T02:24:28;1.90;99.90
18191;DHT22;47004;51.366;12.348;2023-01-23T02:26:37;1.20;99.90
18191;DHT22;47004;51.366;12.348;2023-01-23T02:28:42;2.00;99.90
18191;DHT22;47004;51.366;12.348;2023-01-23T02:30:45;1.20;99.90
18191;DHT22;47004;51.366;12.348;2023-01-23T02:32:47;1.10;99.90
18191;DHT22;47004;51.366;12.348;2023-01-23T02:34:50;1.10;99.90
18191;DHT22;47004;51.366;12.348;2023-01-23T02:36:52;1.20;99.90
18191;DHT22;47004;51.366;12.348;2023-01-23T02:39:12;1.20;99.90
18191;DHT22;47004;51.366;12.348;2023-01-23T02:41:15;1.10;99.90
18191;DHT22;47004;51.366;12.348;2023-01-23T02:43:23;1.20;99.90
18191;DHT22;47004;51.366;12.348;2023-01-23T02:45:26;1.20;99.90
18191;DHT22;47004;51.366;12.348;2023-01-23T02:47:28;1.30;99.90
18191;DHT22;47004;51.366;12.348;2023-01-23T02:49:31;1.20;99.90
18191;DHT22;47004;51.366;12.348;2023-01-23T02:51:33;1.20;99.90
18191;DHT22;47004;51.366;12.348;2023-01-23T02:53:35;1.20;99.90
18191;DHT22;47004;51.366;12.348;2023-01-23T02:55:37;1.20;99.90
18191;DHT22;47004;51.366;12.348;2023-01-23T02:57:42;1.20;99.90
18191;DHT22;47004;51.366;12.348;2023-01-23T02:59:46;1.20;99.90
18191;DHT22;47004;51.366;12.348;2023-01-23T03:02:06;1.20;99.90
18191;DHT22;47004;51.366;12.348;2023-01-23T03:04:08;1.20;99.90
18191;DHT22;47004;51.366;12.348;2023-01-23T03:06:10;2.20;99.90
18191;DHT22;47004;51.366;12.348;2023-01-23T03:08:12;1.20;99.90
18191;DHT22;47004;51.366;12.348;2023-01-23T03:10:14;1.20;99.90
18191;DHT22;47004;51.366;12.348;2023-01-23T03:12:16;1.20;99.90
18191;DHT22;47004;51.366;12.348;2023-01-23T03:14:20;1.20;99.90
18191;DHT22;47004;51.366;12.348;2023-01-23T03:16:24;1.20;99.90
18191;DHT22;47004;51.366;12.348;2023-01-23T03:18:26;1.20;99.90
18191;DHT22;47004;51.366;12.348;2023-01-23T03:20:37;1.20;99.90
18191;DHT22;47004;51.366;12.348;2023-01-23T03:22:39;1.20;99.90
18191;DHT22;47004;51.366;12.348;2023-01-23T03:24:41;1.70;99.90
18191;DHT22;47004;51.366;12.348;2023-01-23T03:26:44;1.20;99.90
18191;DHT22;47004;51.366;12.348;2023-01-23T03:28:46;1.20;99.90
18191;DHT22;47004;51.366;12.348;2023-01-23T03:31:06;1.20;99.90
18191;DHT22;47004;51.366;12.348;2023-01-23T03:33:09;1.20;99.90
18191;DHT22;47004;51.366;12.348;2023-01-23T03:35:12;1.20;99.90
18191;DHT22;47004;51.366;12.348;2023-01-23T03:37:16;1.20;99.90
18191;DHT22;47004;51.366;12.348;2023-01-23T03:39:22;1.20;99.90
18191;DHT22;47004;51.366;12.348;2023-01-23T03:41:41;1.20;99.90
18191;DHT22;47004;51.366;12.348;2023-01-23T03:43:45;1.20;99.90
18191;DHT22;47004;51.366;12.348;2023-01-23T03:45:47;1.20;99.90
18191;DHT22;47004;51.366;12.348;2023-01-23T03:47:52;2.20;99.90
18191;DHT22;47004;51.366;12.348;2023-01-23T03:49:55;1.20;99.90
18191;DHT22;47004;51.366;12.348;2023-01-23T03:51:57;1.20;99.90
18191;DHT22;47004;51.366;12.348;2023-01-23T03:53:59;1.20;99.90
18191;DHT22;47004;51.366;12.348;2023-01-23T03:56:01;1.20;99.90
18191;DHT22;47004;51.366;12.348;2023-01-23T03:58:06;1.20;99.90
18191;DHT22;47004;51.366;12.348;2023-01-23T04:00:09;1.50;99.90
18191;DHT22;47004;51.366;12.348;2023-01-23T04:02:13;1.20;99.90
18191;DHT22;47004;51.366;12.348;2023-01-23T04:04:15;1.20;99.90
18191;DHT22;47004;51.366;12.348;2023-01-23T04:06:19;1.20;99.90
18191;DHT22;47004;51.366;12.348;2023-01-23T04:08:21;1.30;99.90
18191;DHT22;47004;51.366;12.348;2023-01-23T04:10:23;1.20;99.90
18191;DHT22;47004;51.366;12.348;2023-01-23T04:12:25;1.20;99.90
18191;DHT22;47004;51.366;12.348;2023-01-23T04:14:28;1.20;99.90
18191;DHT22;47004;51.366;12.348;2023-01-23T04:16:34;1.30;99.90
18191;DHT22;47004;51.366;12.348;2023-01-23T04:18:37;1.30;99.90
18191;DHT22;47004;51.366;12.348;2023-01-23T04:20:39;1.20;99.90
18191;DHT22;47004;51.366;12.348;2023-01-23T04:22:42;1.70;99.90
18191;DHT22;47004;51.366;12.348;2023-01-23T04:24:46;1.20;99.90
18191;DHT22;47004;51.366;12.348;2023-01-23T04:26:48;1.50;99.90
18191;DHT22;47004;51.366;12.348;2023-01-23T04:28:50;1.20;99.90
18191;DHT22;47004;51.366;12.348;2023-01-23T04:30:52;1.40;99.90
18191;DHT22;47004;51.366;12.348;2023-01-23T04:32:54;1.30;99.90
18191;DHT22;47004;51.366;12.348;2023-01-23T04:34:56;1.30;99.90
18191;DHT22;47004;51.366;12.348;2023-01-23T04:37:01;1.20;99.90
18191;DHT22;47004;51.366;12.348;2023-01-23T04:39:05;1.30;99.90
18191;DHT22;47004;51.366;12.348;2023-01-23T04:41:08;1.20;99.90
18191;DHT22;47004;51.366;12.348;2023-01-23T04:43:11;1.30;99.90
18191;DHT22;47004;51.366;12.348;2023-01-23T04:45:13;1.30;99.90
18191;DHT22;47004;51.366;12.348;2023-01-23T04:47:15;1.30;99.90
18191;DHT22;47004;51.366;12.348;2023-01-23T04:49:17;1.30;99.90
18191;DHT22;47004;51.366;12.348;2023-01-23T04:51:19;1.30;99.90
18191;DHT22;47004;51.366;12.348;2023-01-23T04:53:22;1.20;99.90
18191;DHT22;47004;51.366;12.348;2023-01-23T04:55:25;1.20;99.90
18191;DHT22;47004;51.366;12.348;2023-01-23T04:57:27;1.20;99.90
18191;DHT22;47004;51.366;12.348;2023-01-23T04:59:29;1.30;99.90
18191;DHT22;47004;51.366;12.348;2023-01-23T05:01:32;1.30;99.90
18191;DHT22;47004;51.366;12.348;2023-01-23T05:03:34;1.30;99.90
18191;DHT22;47004;51.366;12.348;2023-01-23T05:05:36;1.30;99.90
18191;DHT22;47004;51.366;12.348;2023-01-23T05:07:39;1.20;99.90
18191;DHT22;47004;51.366;12.348;2023-01-23T05:09:41;1.30;99.90
18191;DHT22;47004;51.366;12.348;2023-01-23T05:11:44;1.30;99.90
18191;DHT22;47004;51.366;12.348;2023-01-23T05:13:46;1.30;99.90
18191;DHT22;47004;51.366;12.348;2023-01-23T05:15:48;1.30;99.90
18191;DHT22;47004;51.366;12.348;2023-01-23T05:17:50;1.30;99.90
18191;DHT22;47004;51.366;12.348;2023-01-23T05:19:52;1.30;99.90
18191;DHT22;47004;51.366;12.348;2023-01-23T05:21:54;1.30;99.90
18191;DHT22;47004;51.366;12.348;2023-01-23T05:23:56;1.30;99.90
18191;DHT22;47004;51.366;12.348;2023-01-23T05:26:03;1.30;99.90
18191;DHT22;47004;51.366;12.348;2023-01-23T05:28:07;1.30;99.90
18191;DHT22;47004;51.366;12.348;2023-01-23T05:30:10;1.40;99.90
18191;DHT22;47004;51.366;12.348;2023-01-23T05:32:12;1.30;99.90
18191;DHT22;47004;51.366;12.348;2023-01-23T05:34:14;1.30;99.90
18191;DHT22;47004;51.366;12.348;2023-01-23T05:36:16;1.30;99.90
18191;DHT22;47004;51.366;12.348;2023-01-23T05:38:17;1.50;99.90
18191;DHT22;47004;51.366;12.348;2023-01-23T05:40:20;1.30;99.90
18191;DHT22;47004;51.366;12.348;2023-01-23T05:42:22;1.30;99.90
18191;DHT22;47004;51.366;12.348;2023-01-23T05:44:25;1.30;99.90
18191;DHT22;47004;51.366;12.348;2023-01-23T05:46:28;1.30;99.90
18191;DHT22;47004;51.366;12.348;2023-01-23T05:48:30;1.30;99.90
18191;DHT22;47004;51.366;12.348;2023-01-23T05:50:31;1.30;99.90
18191;DHT22;47004;51.366;12.348;2023-01-23T05:52:34;1.30;99.90
18191;DHT22;47004;51.366;12.348;2023-01-23T05:54:36;1.30;99.90
18191;DHT22;47004;51.366;12.348;2023-01-23T05:56:38;1.30;99.90
18191;DHT22;47004;51.366;12.348;2023-01-23T05:58:40;1.30;99.90
18191;DHT22;47004;51.366;12.348;2023-01-23T06:00:44;1.30;99.90
18191;DHT22;47004;51.366;12.348;2023-01-23T06:02:46;1.30;99.90
18191;DHT22;47004;51.366;12.348;2023-01-23T06:04:48;1.30;99.90
18191;DHT22;47004;51.366;12.348;2023-01-23T06:06:50;1.30;99.90
18191;DHT22;47004;51.366;12.348;2023-01-23T06:08:52;1.30;99.90
18191;DHT22;47004;51.366;12.348;2023-01-23T06:10:56;1.30;99.90
18191;DHT22;47004;51.366;12.348;2023-01-23T06:12:59;1.30;99.90
18191;DHT22;47004;51.366;12.348;2023-01-23T06:15:01;1.30;99.90
18191;DHT22;47004;51.366;12.348;2023-01-23T06:17:05;1.30;99.90
18191;DHT22;47004;51.366;12.348;2023-01-23T06:19:07;1.20;99.90
18191;DHT22;47004;51.366;12.348;2023-01-23T06:21:09;1.30;99.90
18191;DHT22;47004;51.366;12.348;2023-01-23T06:23:11;1.30;99.90
18191;DHT22;47004;51.366;12.348;2023-01-23T06:25:13;1.30;99.90
18191;DHT22;47004;51.366;12.348;2023-01-23T06:27:18;1.30;99.90
18191;DHT22;47004;51.366;12.348;2023-01-23T06:29:20;1.30;99.90
18191;DHT22;47004;51.366;12.348;2023-01-23T06:31:22;1.30;99.90
18191;DHT22;47004;51.366;12.348;2023-01-23T06:33:25;1.30;99.90
18191;DHT22;47004;51.366;12.348;2023-01-23T06:35:27;1.30;99.90
18191;DHT22;47004;51.366;12.348;2023-01-23T06:37:29;1.30;99.90
18191;DHT22;47004;51.366;12.348;2023-01-23T06:39:31;1.30;99.90
18191;DHT22;47004;51.366;12.348;2023-01-23T06:41:33;1.30;99.90
18191;DHT22;47004;51.366;12.348;2023-01-23T06:43:35;1.30;99.90
18191;DHT22;47004;51.366;12.348;2023-01-23T06:45:37;1.30;99.90
18191;DHT22;47004;51.366;12.348;2023-01-23T06:47:39;1.30;99.90
18191;DHT22;47004;51.366;12.348;2023-01-23T06:49:42;1.20;99.90
18191;DHT22;47004;51.366;12.348;2023-01-23T06:51:44;1.30;99.90
18191;DHT22;47004;51.366;12.348;2023-01-23T06:53:46;1.30;99.90
18191;DHT22;47004;51.366;12.348;2023-01-23T06:55:48;1.30;99.90
18191;DHT22;47004;51.366;12.348;2023-01-23T06:57:50;1.30;99.90
18191;DHT22;47004;51.366;12.348;2023-01-23T06:59:52;1.30;99.90
18191;DHT22;47004;51.366;12.348;2023-01-23T07:01:54;1.30;99.90
18191;DHT22;47004;51.366;12.348;2023-01-23T07:03:57;1.30;99.90
18191;DHT22;47004;51.366;12.348;2023-01-23T07:06:02;1.30;99.90
18191;DHT22;47004;51.366;12.348;2023-01-23T07:08:11;1.30;99.90
18191;DHT22;47004;51.366;12.348;2023-01-23T07:10:13;1.30;99.90
18191;DHT22;47004;51.366;12.348;2023-01-23T07:12:15;1.40;99.90
18191;DHT22;47004;51.366;12.348;2023-01-23T07:14:17;1.30;99.90
18191;DHT22;47004;51.366;12.348;2023-01-23T07:16:19;1.30;99.90
18191;DHT22;47004;51.366;12.348;2023-01-23T07:18:23;1.30;99.90
18191;DHT22;47004;51.366;12.348;2023-01-23T07:20:28;1.30;99.90
18191;DHT22;47004;51.366;12.348;2023-01-23T07:22:31;1.30;99.90
18191;DHT22;47004;51.366;12.348;2023-01-23T07:24:33;1.30;99.90
18191;DHT22;47004;51.366;12.348;2023-01-23T07:26:35;1.30;99.90
18191;DHT22;47004;51.366;12.348;2023-01-23T07:28:37;1.30;99.90
18191;DHT22;47004;51.366;12.348;2023-01-23T07:30:43;1.30;99.90
18191;DHT22;47004;51.366;12.348;2023-01-23T07:32:45;1.40;99.90
18191;DHT22;47004;51.366;12.348;2023-01-23T07:34:47;1.40;99.90
18191;DHT22;47004;51.366;12.348;2023-01-23T07:36:49;1.40;99.90
18191;DHT22;47004;51.366;12.348;2023-01-23T07:38:52;1.30;99.90
18191;DHT22;47004;51.366;12.348;2023-01-23T07:40:57;1.40;99.90
18191;DHT22;47004;51.366;12.348;2023-01-23T07:42:59;1.40;99.90
18191;DHT22;47004;51.366;12.348;2023-01-23T07:45:01;1.40;99.90
18191;DHT22;47004;51.366;12.348;2023-01-23T07:47:03;1.40;99.90
18191;DHT22;47004;51.366;12.348;2023-01-23T07:49:05;1.40;99.90
18191;DHT22;47004;51.366;12.348;2023-01-23T07:51:07;1.40;99.90
18191;DHT22;47004;51.366;12.348;2023-01-23T07:53:09;1.40;99.90
18191;DHT22;47004;51.366;12.348;2023-01-23T07:55:13;1.40;99.90
18191;DHT22;47004;51.366;12.348;2023-01-23T07:57:15;1.40;99.90
18191;DHT22;47004;51.366;12.348;2023-01-23T07:59:17;1.40;99.90
18191;DHT22;47004;51.366;12.348;2023-01-23T08:01:19;1.50;99.90
18191;DHT22;47004;51.366;12.348;2023-01-23T08:03:23;1.50;99.90
18191;DHT22;47004;51.366;12.348;2023-01-23T08:05:28;1.70;99.90
18191;DHT22;47004;51.366;12.348;2023-01-23T08:07:30;1.50;99.90
18191;DHT22;47004;51.366;12.348;2023-01-23T08:09:32;1.50;99.90
18191;DHT22;47004;51.366;12.348;2023-01-23T08:11:36;1.50;99.90
18191;DHT22;47004;51.366;12.348;2023-01-23T08:13:37;1.50;99.90
18191;DHT22;47004;51.366;12.348;2023-01-23T08:15:40;1.60;99.90
18191;DHT22;47004;51.366;12.348;2023-01-23T08:17:42;1.50;99.90
18191;DHT22;47004;51.366;12.348;2023-01-23T08:19:43;1.60;99.90
18191;DHT22;47004;51.366;12.348;2023-01-23T08:21:45;1.60;99.90
18191;DHT22;47004;51.366;12.348;2023-01-23T08:23:47;1.60;99.90
18191;DHT22;47004;51.366;12.348;2023-01-23T08:25:51;1.60;99.90
18191;DHT22;47004;51.366;12.348;2023-01-23T08:27:55;1.70;99.90
18191;DHT22;47004;51.366;12.348;2023-01-23T08:29:57;1.70;99.90
18191;DHT22;47004;51.366;12.348;2023-01-23T08:31:59;1.70;99.90
18191;DHT22;47004;51.366;12.348;2023-01-23T08:34:03;1.70;99.90
18191;DHT22;47004;51.366;12.348;2023-01-23T08:36:07;1.70;99.90
18191;DHT22;47004;51.366;12.348;2023-01-23T08:38:09;1.70;99.90
18191;DHT22;47004;51.366;12.348;2023-01-23T08:40:11;2.40;99.90
18191;DHT22;47004;51.366;12.348;2023-01-23T08:42:14;1.70;99.90
18191;DHT22;47004;51.366;12.348;2023-01-23T08:44:17;1.70;99.90
18191;DHT22;47004;51.366;12.348;2023-01-23T08:46:19;1.80;99.90
18191;DHT22;47004;51.366;12.348;2023-01-23T08:48:22;1.80;99.90
18191;DHT22;47004;51.366;12.348;2023-01-23T08:50:25;1.60;99.90
18191;DHT22;47004;51.366;12.348;2023-01-23T08:52:27;1.70;99.90
18191;DHT22;47004;51.366;12.348;2023-01-23T08:54:29;1.70;99.90
18191;DHT22;47004;51.366;12.348;2023-01-23T08:56:31;1.80;99.90
18191;DHT22;47004;51.366;12.348;2023-01-23T08:58:33;1.70;99.90
18191;DHT22;47004;51.366;12.348;2023-01-23T09:00:37;1.70;99.90
18191;DHT22;47004;51.366;12.348;2023-01-23T09:02:42;1.80;99.90
18191;DHT22;47004;51.366;12.348;2023-01-23T09:04:44;1.80;99.90
18191;DHT22;47004;51.366;12.348;2023-01-23T09:06:46;1.80;99.90
18191;DHT22;47004;51.366;12.348;2023-01-23T09:08:48;1.80;99.90
18191;DHT22;47004;51.366;12.348;2023-01-23T09:10:50;1.80;99.90
18191;DHT22;47004;51.366;12.348;2023-01-23T09:12:53;1.80;99.90
18191;DHT22;47004;51.366;12.348;2023-01-23T09:14:55;1.80;99.90
18191;DHT22;47004;51.366;12.348;2023-01-23T09:16:58;1.80;99.90
18191;DHT22;47004;51.366;12.348;2023-01-23T09:19:00;1.80;99.90
18191;DHT22;47004;51.366;12.348;2023-01-23T09:21:05;1.80;99.90
18191;DHT22;47004;51.366;12.348;2023-01-23T09:23:07;1.80;99.90
18191;DHT22;47004;51.366;12.348;2023-01-23T09:25:10;1.80;99.90
18191;DHT22;47004;51.366;12.348;2023-01-23T09:27:12;1.80;99.90
18191;DHT22;47004;51.366;12.348;2023-01-23T09:29:14;1.80;99.90
18191;DHT22;47004;51.366;12.348;2023-01-23T09:31:16;1.80;99.90
18191;DHT22;47004;51.366;12.348;2023-01-23T09:33:20;1.80;99.90
18191;DHT22;47004;51.366;12.348;2023-01-23T09:35:26;1.90;99.90
18191;DHT22;47004;51.366;12.348;2023-01-23T09:37:29;1.90;99.90
18191;DHT22;47004;51.366;12.348;2023-01-23T09:39:51;1.90;99.90
18191;DHT22;47004;51.366;12.348;2023-01-23T09:41:53;1.90;99.90
18191;DHT22;47004;51.366;12.348;2023-01-23T09:43:58;1.90;99.90
18191;DHT22;47004;51.366;12.348;2023-01-23T09:46:07;1.90;99.90
18191;DHT22;47004;51.366;12.348;2023-01-23T09:48:20;1.90;99.90
18191;DHT22;47004;51.366;12.348;2023-01-23T09:50:26;1.90;99.90
18191;DHT22;47004;51.366;12.348;2023-01-23T09:52:32;2.00;99.90
18191;DHT22;47004;51.366;12.348;2023-01-23T09:54:41;2.00;99.90
18191;DHT22;47004;51.366;12.348;2023-01-23T09:56:46;2.00;99.90
18191;DHT22;47004;51.366;12.348;2023-01-23T09:59:01;2.00;99.90
18191;DHT22;47004;51.366;12.348;2023-01-23T10:01:04;2.00;99.90
18191;DHT22;47004;51.366;12.348;2023-01-23T10:03:12;2.10;99.90
18191;DHT22;47004;51.366;12.348;2023-01-23T10:05:17;2.10;99.90
18191;DHT22;47004;51.366;12.348;2023-01-23T10:07:40;2.10;99.90
18191;DHT22;47004;51.366;12.348;2023-01-23T10:10:09;2.10;99.90
18191;DHT22;47004;51.366;12.348;2023-01-23T10:12:23;2.20;99.90
18191;DHT22;47004;51.366;12.348;2023-01-23T10:14:43;2.10;99.90
18191;DHT22;47004;51.366;12.348;2023-01-23T10:17:02;2.10;99.90
18191;DHT22;47004;51.366;12.348;2023-01-23T10:19:14;2.20;99.90
18191;DHT22;47004;51.366;12.348;2023-01-23T10:21:25;2.20;99.90
18191;DHT22;47004;51.366;12.348;2023-01-23T10:23:45;2.20;99.90
18191;DHT22;47004;51.366;12.348;2023-01-23T10:25:49;2.30;99.90
18191;DHT22;47004;51.366;12.348;2023-01-23T10:27:54;2.30;99.90
18191;DHT22;47004;51.366;12.348;2023-01-23T10:30:01;2.30;99.90
18191;DHT22;47004;51.366;12.348;2023-01-23T10:32:20;2.30;99.90
18191;DHT22;47004;51.366;12.348;2023-01-23T10:34:29;2.40;99.90
18191;DHT22;47004;51.366;12.348;2023-01-23T10:36:37;2.40;99.90
18191;DHT22;47004;51.366;12.348;2023-01-23T10:38:48;2.40;99.90
18191;DHT22;47004;51.366;12.348;2023-01-23T10:40:54;2.40;99.90
18191;DHT22;47004;51.366;12.348;2023-01-23T10:43:20;2.40;99.90
18191;DHT22;47004;51.366;12.348;2023-01-23T10:45:22;2.50;99.90
18191;DHT22;47004;51.366;12.348;2023-01-23T10:47:29;2.50;99.90
18191;DHT22;47004;51.366;12.348;2023-01-23T10:49:33;2.50;99.90
18191;DHT22;47004;51.366;12.348;2023-01-23T10:51:46;2.60;99.90
18191;DHT22;47004;51.366;12.348;2023-01-23T10:54:02;2.60;99.90
18191;DHT22;47004;51.366;12.348;2023-01-23T10:56:15;2.60;99.90
18191;DHT22;47004;51.366;12.348;2023-01-23T10:58:27;2.60;99.90
18191;DHT22;47004;51.366;12.348;2023-01-23T11:00:34;2.60;99.90
18191;DHT22;47004;51.366;12.348;2023-01-23T11:02:37;2.60;99.90
18191;DHT22;47004;51.366;12.348;2023-01-23T11:04:41;2.90;99.90
18191;DHT22;47004;51.366;12.348;2023-01-23T11:07:00;2.90;99.90
18191;DHT22;47004;51.366;12.348;2023-01-23T11:09:02;2.70;99.90
18191;DHT22;47004;51.366;12.348;2023-01-23T11:11:21;2.70;99.90
18191;DHT22;47004;51.366;12.348;2023-01-23T11:13:28;2.70;99.90
18191;DHT22;47004;51.366;12.348;2023-01-23T11:15:32;2.70;99.90
18191;DHT22;47004;51.366;12.348;2023-01-23T11:17:35;2.70;99.90
18191;DHT22;47004;51.366;12.348;2023-01-23T11:19:37;2.70;99.90
18191;DHT22;47004;51.366;12.348;2023-01-23T11:21:53;2.70;99.90
18191;DHT22;47004;51.366;12.348;2023-01-23T11:24:08;2.70;99.90
18191;DHT22;47004;51.366;12.348;2023-01-23T11:26:29;2.70;99.90
18191;DHT22;47004;51.366;12.348;2023-01-23T11:28:32;2.70;99.90
18191;DHT22;47004;51.366;12.348;2023-01-23T11:30:40;2.70;99.90
18191;DHT22;47004;51.366;12.348;2023-01-23T11:32:48;2.70;99.90
18191;DHT22;47004;51.366;12.348;2023-01-23T11:35:01;2.70;99.90
18191;DHT22;47004;51.366;12.348;2023-01-23T11:37:12;2.80;99.90
18191;DHT22;47004;51.366;12.348;2023-01-23T11:39:25;2.70;99.90
18191;DHT22;47004;51.366;12.348;2023-01-23T11:41:32;2.70;99.90
18191;DHT22;47004;51.366;12.348;2023-01-23T11:43:35;2.80;99.90
18191;DHT22;47004;51.366;12.348;2023-01-23T11:45:43;2.80;99.90
18191;DHT22;47004;51.366;12.348;2023-01-23T11:48:02;2.80;99.90
18191;DHT22;47004;51.366;12.348;2023-01-23T11:50:33;2.80;99.90
18191;DHT22;47004;51.366;12.348;2023-01-23T11:52:52;2.80;99.90
18191;DHT22;47004;51.366;12.348;2023-01-23T11:55:16;2.80;99.90
18191;DHT22;47004;51.366;12.348;2023-01-23T11:57:30;2.80;99.90
18191;DHT22;47004;51.366;12.348;2023-01-23T11:59:50;2.80;99.90
18191;DHT22;47004;51.366;12.348;2023-01-23T12:02:18;2.80;99.90
18191;DHT22;47004;51.366;12.348;2023-01-23T12:04:34;2.80;99.90
18191;DHT22;47004;51.366;12.348;2023-01-23T12:06:58;2.80;99.90
18191;DHT22;47004;51.366;12.348;2023-01-23T12:09:09;2.80;99.90
18191;DHT22;47004;51.366;12.348;2023-01-23T12:11:14;2.80;99.90
18191;DHT22;47004;51.366;12.348;2023-01-23T12:13:28;2.80;99.90
18191;DHT22;47004;51.366;12.348;2023-01-23T12:15:43;3.10;99.90
18191;DHT22;47004;51.366;12.348;2023-01-23T12:17:50;2.80;99.90
18191;DHT22;47004;51.366;12.348;2023-01-23T12:20:27;2.90;99.90
18191;DHT22;47004;51.366;12.348;2023-01-23T12:22:41;2.80;99.90
18191;DHT22;47004;51.366;12.348;2023-01-23T12:25:00;2.80;99.90
18191;DHT22;47004;51.366;12.348;2023-01-23T12:27:10;2.80;99.90
18191;DHT22;47004;51.366;12.348;2023-01-23T12:29:36;2.80;99.90
18191;DHT22;47004;51.366;12.348;2023-01-23T12:31:53;2.80;99.90
18191;DHT22;47004;51.366;12.348;2023-01-23T12:34:15;2.80;99.90
18191;DHT22;47004;51.366;12.348;2023-01-23T12:36:31;2.80;99.90
18191;DHT22;47004;51.366;12.348;2023-01-23T12:38:41;2.80;99.90
18191;DHT22;47004;51.366;12.348;2023-01-23T12:40:51;2.80;99.90
18191;DHT22;47004;51.366;12.348;2023-01-23T12:43:00;2.90;99.90
18191;DHT22;47004;51.366;12.348;2023-01-23T12:45:06;2.80;99.90
18191;DHT22;47004;51.366;12.348;2023-01-23T12:47:15;2.80;99.90
18191;DHT22;47004;51.366;12.348;2023-01-23T12:49:23;2.80;99.90
18191;DHT22;47004;51.366;12.348;2023-01-23T12:51:32;2.80;99.90
18191;DHT22;47004;51.366;12.348;2023-01-23T12:53:37;2.90;99.90
18191;DHT22;47004;51.366;12.348;2023-01-23T12:55:52;2.50;99.90
18191;DHT22;47004;51.366;12.348;2023-01-23T12:57:57;2.80;99.90
18191;DHT22;47004;51.366;12.348;2023-01-23T13:00:05;2.80;99.90
18191;DHT22;47004;51.366;12.348;2023-01-23T13:02:13;2.80;99.90
18191;DHT22;47004;51.366;12.348;2023-01-23T13:04:38;2.80;99.90
18191;DHT22;47004;51.366;12.348;2023-01-23T13:07:02;2.80;99.90
18191;DHT22;47004;51.366;12.348;2023-01-23T13:09:15;2.80;99.90
18191;DHT22;47004;51.366;12.348;2023-01-23T13:11:30;2.80;99.90